1890 Hurricane NOT_NAMED (1890266N12338)


IBTrACS version v04r00. Visit IBTrACS website for data access.
Please direct all questions to the IBTrACS Q and A forum

Storm track - Intensity - Wind Radii - Intensity Data - Source Data - All data

Summary Information

Storm ID 1890266N12338
Start Sep 22 12Z
Max Intensity 65 kt (Sep 24 06Z)
End Sep 29 12Z
ATCF IDs
Track status Best track data.

Storm track plot

Map of storm track

Intensity plots

Map of storm track

Radial wind information

No radial wind information for this storm


Position and Intensity Table

BASIN ISO_TIME_________ NATURE LAT LON MLC WIND
degrees north degrees east kts
NA 1890-09-22 12:00:00 TS 12.00 -22.50 30
NA 15:00:00 TS 12.16 -22.69 30
NA 18:00:00 TS 12.30 -22.80 30
NA 21:00:00 TS 12.40 -22.83 32
NA 1890-09-23 00:00:00 TS 12.50 -23.00 35
NA 03:00:00 TS 12.65 -23.57 35
NA 06:00:00 TS 12.80 -24.30 35
NA 09:00:00 TS 12.91 -24.93 40
NA 12:00:00 TS 13.00 -25.50 45
NA 15:00:00 TS 13.05 -25.97 50
NA 18:00:00 TS 13.10 -26.40 55
NA 21:00:00 TS 13.20 -26.85 57
NA 1890-09-24 00:00:00 TS 13.30 -27.30 60
NA 03:00:00 TS 13.36 -27.76 62
NA 06:00:00 TS 13.40 -28.20 65
NA 09:00:00 TS 13.45 -28.58 65
NA 12:00:00 TS 13.50 -29.00 65
NA 15:00:00 TS 13.54 -29.58 65
NA 18:00:00 TS 13.60 -30.20 65
NA 21:00:00 TS 13.70 -30.76 65
NA 1890-09-25 00:00:00 TS 13.80 -31.30 65
NA 03:00:00 TS 13.86 -31.85 65
NA 06:00:00 TS 13.90 -32.40 65
NA 09:00:00 TS 13.96 -32.93 65
NA 12:00:00 TS 14.00 -33.50 65
NA 15:00:00 TS 14.01 -34.14 65
NA 18:00:00 TS 14.00 -34.80 65
NA 21:00:00 TS 14.00 -35.42 65
NA 1890-09-26 00:00:00 TS 14.00 -36.00 65
NA 03:00:00 TS 14.00 -36.51 65
NA 06:00:00 TS 14.00 -37.00 65
NA 09:00:00 TS 14.00 -37.48 65
NA 12:00:00 TS 14.00 -38.00 65
NA 15:00:00 TS 14.00 -38.64 65
NA 18:00:00 TS 14.00 -39.30 65
NA 21:00:00 TS 14.00 -39.90 65
NA 1890-09-27 00:00:00 TS 14.00 -40.50 65
NA 03:00:00 TS 14.00 -41.15 65
NA 06:00:00 TS 14.00 -41.80 65
NA 09:00:00 TS 14.00 -42.40 65
NA 12:00:00 TS 14.00 -43.00 65
NA 15:00:00 TS 14.00 -43.65 62
NA 18:00:00 TS 14.00 -44.30 60
NA 21:00:00 TS 14.00 -44.90 57
NA 1890-09-28 00:00:00 TS 14.00 -45.50 55
NA 03:00:00 TS 14.00 -46.15 52
NA 06:00:00 TS 14.00 -46.80 50
NA 09:00:00 TS 14.01 -47.41 45
NA 12:00:00 TS 14.00 -48.00 40
NA 15:00:00 TS 13.94 -48.59 37
NA 18:00:00 TS 13.80 -49.20 35
NA 21:00:00 TS 13.56 -49.85 32
NA 1890-09-29 00:00:00 TS 13.30 -50.50 30
NA 03:00:00 TS 13.09 -51.10 27
NA 06:00:00 TS 12.90 -51.70 25
NA 09:00:00 TS 12.70 -52.34 25
NA 12:00:00 TS 12.50 -53.00 25

Source Information

Agency Information
USA
TOKYO
CMA
HKO
NEWDELHI
REUNION
BOM
NADI
WELLINGTON
DS824
TD9636
TD9635
NEUMANN
MLC

All available IBTrACS Data

SEASON BASIN SUBBASIN ISO_TIME_________ NATURE LAT LON DIST2LAND LANDFALL IFLAG USA SSHS MLC LAT MLC LON MLC CLASS MLC WIND STORM SPEED STORM DIR
Year degrees north degrees east km km 1 degrees north degrees east kts kts degrees
1890 NA NA 1890-09-22 12:00:00 TS 12.00 -22.50 619 619 _____________O -1 12.00 -22.50 TD 30 5 312
1890 NA NA 15:00:00 TS 12.16 -22.69 628 628 _____________P -1 12.16 -22.69 TD 30 4 316
1890 NA NA 18:00:00 TS 12.30 -22.80 633 628 _____________O -1 12.30 -22.80 TD 30 3 330
1890 NA NA 21:00:00 TS 12.40 -22.83 628 628 _____________P -1 12.40 -22.83 TD 32 3 316
1890 NA NA 1890-09-23 00:00:00 TS 12.50 -23.00 643 643 _____________O -1 12.50 -23.00 TS 35 8 289
1890 NA NA 03:00:00 TS 12.65 -23.57 696 696 _____________P -1 12.65 -23.57 TS 35 13 283
1890 NA NA 06:00:00 TS 12.80 -24.30 764 764 _____________O -1 12.80 -24.30 TS 35 13 281
1890 NA NA 09:00:00 TS 12.91 -24.93 824 824 _____________P -1 12.91 -24.93 TS 40 12 280
1890 NA NA 12:00:00 TS 13.00 -25.50 884 884 _____________O -1 13.00 -25.50 TS 45 10 278
1890 NA NA 15:00:00 TS 13.05 -25.97 937 935 _____________P -1 13.05 -25.97 TS 50 9 277
1890 NA NA 18:00:00 TS 13.10 -26.40 977 977 _____________O -1 13.10 -26.40 TS 55 9 280
1890 NA NA 21:00:00 TS 13.20 -26.85 1017 1017 _____________P -1 13.20 -26.85 TS 57 9 283
1890 NA NA 1890-09-24 00:00:00 TS 13.30 -27.30 1069 1069 _____________O -1 13.30 -27.30 TS 60 9 280
1890 NA NA 03:00:00 TS 13.36 -27.76 1120 1120 _____________P -1 13.36 -27.76 TS 62 9 277
1890 NA NA 06:00:00 TS 13.40 -28.20 1163 1163 _____________O -1 13.40 -28.20 HU 65 8 277
1890 NA NA 09:00:00 TS 13.45 -28.58 1206 1205 _____________P -1 13.45 -28.58 HU 65 8 277
1890 NA NA 12:00:00 TS 13.50 -29.00 1247 1247 _____________O -1 13.50 -29.00 HU 65 10 275
1890 NA NA 15:00:00 TS 13.54 -29.58 1312 1312 _____________P -1 13.54 -29.58 HU 65 12 275
1890 NA NA 18:00:00 TS 13.60 -30.20 1375 1375 _____________O -1 13.60 -30.20 HU 65 12 278
1890 NA NA 21:00:00 TS 13.70 -30.76 1438 1438 _____________P -1 13.70 -30.76 HU 65 11 281
1890 NA NA 1890-09-25 00:00:00 TS 13.80 -31.30 1491 1491 _____________O -1 13.80 -31.30 HU 65 11 278
1890 NA NA 03:00:00 TS 13.86 -31.85 1554 1554 _____________P -1 13.86 -31.85 HU 65 11 275
1890 NA NA 06:00:00 TS 13.90 -32.40 1608 1608 _____________O -1 13.90 -32.40 HU 65 11 275
1890 NA NA 09:00:00 TS 13.96 -32.93 1661 1661 _____________P -1 13.96 -32.93 HU 65 11 275
1890 NA NA 12:00:00 TS 14.00 -33.50 1725 1725 _____________O -1 14.00 -33.50 HU 65 12 272
1890 NA NA 15:00:00 TS 14.01 -34.14 1790 1790 _____________P -1 14.01 -34.14 HU 65 13 270
1890 NA NA 18:00:00 TS 14.00 -34.80 1865 1865 _____________O -1 14.00 -34.80 HU 65 12 270
1890 NA NA 21:00:00 TS 14.00 -35.42 1930 1930 _____________P -1 14.00 -35.42 HU 65 12 270
1890 NA NA 1890-09-26 00:00:00 TS 14.00 -36.00 1939 1928 _____________O -1 14.00 -36.00 HU 65 11 270
1890 NA NA 03:00:00 TS 14.00 -36.51 1928 1908 _____________P -1 14.00 -36.51 HU 65 10 270
1890 NA NA 06:00:00 TS 14.00 -37.00 1908 1872 _____________O -1 14.00 -37.00 HU 65 9 270
1890 NA NA 09:00:00 TS 14.00 -37.48 1863 1819 _____________P -1 14.00 -37.48 HU 65 10 270
1890 NA NA 12:00:00 TS 14.00 -38.00 1819 1767 _____________O -1 14.00 -38.00 HU 65 11 270
1890 NA NA 15:00:00 TS 14.00 -38.64 1767 1707 _____________P -1 14.00 -38.64 HU 65 13 270
1890 NA NA 18:00:00 TS 14.00 -39.30 1707 1656 _____________O -1 14.00 -39.30 HU 65 12 270
1890 NA NA 21:00:00 TS 14.00 -39.90 1656 1607 _____________P -1 14.00 -39.90 HU 65 12 270
1890 NA NA 1890-09-27 00:00:00 TS 14.00 -40.50 1607 1559 _____________O -1 14.00 -40.50 HU 65 12 270
1890 NA NA 03:00:00 TS 14.00 -41.15 1559 1505 _____________P -1 14.00 -41.15 HU 65 13 270
1890 NA NA 06:00:00 TS 14.00 -41.80 1505 1460 _____________O -1 14.00 -41.80 HU 65 12 270
1890 NA NA 09:00:00 TS 14.00 -42.40 1460 1417 _____________P -1 14.00 -42.40 HU 65 12 270
1890 NA NA 12:00:00 TS 14.00 -43.00 1417 1376 _____________O -1 14.00 -43.00 HU 65 12 270
1890 NA NA 15:00:00 TS 14.00 -43.65 1376 1330 _____________P -1 14.00 -43.65 HU 62 13 270
1890 NA NA 18:00:00 TS 14.00 -44.30 1330 1293 _____________O -1 14.00 -44.30 TS 60 12 270
1890 NA NA 21:00:00 TS 14.00 -44.90 1293 1255 _____________P -1 14.00 -44.90 TS 57 12 270
1890 NA NA 1890-09-28 00:00:00 TS 14.00 -45.50 1255 1216 _____________O -1 14.00 -45.50 TS 55 12 270
1890 NA NA 03:00:00 TS 14.00 -46.15 1216 1172 _____________P -1 14.00 -46.15 TS 52 13 270
1890 NA NA 06:00:00 TS 14.00 -46.80 1172 1138 _____________O -1 14.00 -46.80 TS 50 12 271
1890 NA NA 09:00:00 TS 14.01 -47.41 1138 1107 _____________P -1 14.01 -47.41 TS 45 12 270
1890 NA NA 12:00:00 TS 14.00 -48.00 1107 1067 _____________O -1 14.00 -48.00 TS 40 12 266
1890 NA NA 15:00:00 TS 13.94 -48.59 1067 1030 _____________P -1 13.94 -48.59 TS 37 12 260
1890 NA NA 18:00:00 TS 13.80 -49.20 1030 986 _____________O -1 13.80 -49.20 TS 35 13 253
1890 NA NA 21:00:00 TS 13.56 -49.85 982 922 _____________P -1 13.56 -49.85 TS 32 14 248
1890 NA NA 1890-09-29 00:00:00 TS 13.30 -50.50 922 875 _____________O -1 13.30 -50.50 TD 30 13 249
1890 NA NA 03:00:00 TS 13.09 -51.10 875 830 _____________P -1 13.09 -51.10 TD 27 12 251
1890 NA NA 06:00:00 TS 12.90 -51.70 830 789 _____________O -1 12.90 -51.70 TD 25 13 252
1890 NA NA 09:00:00 TS 12.70 -52.34 789 750 _____________P -1 12.70 -52.34 TD 25 13 252
1890 NA NA 12:00:00 TS 12.50 -53.00 750 _____________O -1 12.50 -53.00 TD 25 14 253